createdAt,value
2023-05-02T00:02:21.837Z,2.65
2023-05-02T00:04:49.143Z,2.58
2023-05-02T00:07:16.180Z,2.56
2023-05-02T00:09:43.175Z,2.54
2023-05-02T00:12:10.209Z,2.52
2023-05-02T00:14:37.248Z,2.48
2023-05-02T00:17:04.421Z,2.43
2023-05-02T00:19:31.589Z,2.40
2023-05-02T00:21:58.549Z,2.38
2023-05-02T00:24:27.195Z,2.34
2023-05-02T00:26:54.230Z,2.31
2023-05-02T00:29:22.135Z,2.28
2023-05-02T00:31:49.150Z,2.25
2023-05-02T00:34:16.214Z,2.21
2023-05-02T00:36:43.224Z,2.15
2023-05-02T00:39:11.048Z,2.12
2023-05-02T00:41:38.039Z,2.12
2023-05-02T00:44:05.240Z,2.11
2023-05-02T00:46:32.430Z,2.08
2023-05-02T00:48:59.546Z,2.07
2023-05-02T00:51:27.627Z,2.06
2023-05-02T00:53:54.951Z,2.03
2023-05-02T00:56:21.979Z,1.99
2023-05-02T00:58:49.024Z,1.96
2023-05-02T01:01:25.815Z,1.93
2023-05-02T01:04:21.307Z,1.90
2023-05-02T01:06:58.849Z,1.87
2023-05-02T01:10:07.613Z,1.83
2023-05-02T01:12:47.416Z,1.78
2023-05-02T01:15:19.585Z,1.77
2023-05-02T01:17:47.036Z,1.77
2023-05-02T01:20:16.661Z,1.77
2023-05-02T01:22:43.695Z,1.77
2023-05-02T01:25:16.936Z,1.77
2023-05-02T01:28:07.564Z,1.77
2023-05-02T01:30:35.074Z,1.76
2023-05-02T01:33:02.786Z,1.71
2023-05-02T01:35:30.010Z,1.65
2023-05-02T01:37:57.095Z,1.61
2023-05-02T01:40:25.344Z,1.56
2023-05-02T01:42:52.364Z,1.52
2023-05-02T01:45:19.998Z,1.46
2023-05-02T01:47:47.221Z,1.42
2023-05-02T01:50:17.759Z,1.40
2023-05-02T01:52:44.814Z,1.39
2023-05-02T01:55:13.672Z,1.37
2023-05-02T01:57:41.404Z,1.35
2023-05-02T02:00:09.330Z,1.34
2023-05-02T02:02:42.984Z,1.36
2023-05-02T02:05:10.854Z,1.35
2023-05-02T02:07:37.849Z,1.33
2023-05-02T02:10:05.198Z,1.28
2023-05-02T02:13:06.771Z,1.24
2023-05-02T02:15:35.382Z,1.24
2023-05-02T02:18:09.265Z,1.25
2023-05-02T02:20:36.458Z,1.26
2023-05-02T02:23:05.668Z,1.26
2023-05-02T02:25:33.388Z,1.26
2023-05-02T02:28:01.292Z,1.27
2023-05-02T02:30:28.423Z,1.27
2023-05-02T02:32:55.474Z,1.26
2023-05-02T02:35:22.734Z,1.24
2023-05-02T02:38:34.884Z,1.24
2023-05-02T02:41:17.089Z,1.23
2023-05-02T02:44:13.504Z,1.23
2023-05-02T02:47:09.424Z,1.23
2023-05-02T02:49:42.492Z,1.26
2023-05-02T02:52:22.708Z,1.30
2023-05-02T02:54:58.655Z,1.41
2023-05-02T02:57:30.962Z,1.55
2023-05-02T03:00:09.013Z,1.73
2023-05-02T03:02:36.173Z,1.92
2023-05-02T03:05:04.182Z,2.07
2023-05-02T03:07:31.727Z,2.23
2023-05-02T03:09:59.102Z,2.38
2023-05-02T03:12:26.447Z,2.55
2023-05-02T03:14:53.450Z,2.80
2023-05-02T03:17:20.601Z,3.27
2023-05-02T03:19:47.720Z,3.85
2023-05-02T03:22:15.160Z,4.40
2023-05-02T03:24:42.224Z,4.93
2023-05-02T03:27:09.817Z,5.52
2023-05-02T03:29:39.349Z,6.26
2023-05-02T03:32:06.988Z,7.02
2023-05-02T03:34:34.954Z,7.84
2023-05-02T03:37:02.071Z,8.65
2023-05-02T03:39:29.741Z,9.43
2023-05-02T03:41:56.791Z,10.19
2023-05-02T03:44:23.994Z,10.95
2023-05-02T03:46:51.144Z,11.58
2023-05-02T03:49:19.965Z,12.10
2023-05-02T03:51:47.733Z,12.43
2023-05-02T03:54:16.130Z,12.68
2023-05-02T03:56:45.262Z,13.00
2023-05-02T03:59:19.414Z,13.21
2023-05-02T04:01:50.585Z,13.14
2023-05-02T04:04:19.558Z,13.00
2023-05-02T04:06:50.268Z,12.88
2023-05-02T04:09:17.572Z,12.77
2023-05-02T04:11:52.433Z,12.65
2023-05-02T04:14:19.627Z,12.41
2023-05-02T04:16:51.190Z,12.15
2023-05-02T04:19:23.449Z,12.05
2023-05-02T04:21:50.632Z,12.07
2023-05-02T04:24:18.281Z,12.21
2023-05-02T04:26:47.653Z,12.20
2023-05-02T04:29:15.158Z,12.10
2023-05-02T04:31:42.645Z,12.10
2023-05-02T04:34:11.001Z,12.16
2023-05-02T04:36:42.791Z,12.25
2023-05-02T04:39:12.695Z,12.46
2023-05-02T04:41:44.503Z,12.84
2023-05-02T04:44:11.604Z,13.15
2023-05-02T04:46:38.817Z,13.36
2023-05-02T04:49:05.925Z,13.30
2023-05-02T04:51:32.941Z,13.16
2023-05-02T04:53:59.972Z,13.09
2023-05-02T04:56:27.584Z,13.09
2023-05-02T04:58:54.936Z,12.98
2023-05-02T05:01:24.306Z,12.80
2023-05-02T05:03:51.653Z,12.59
2023-05-02T05:06:19.682Z,12.43
2023-05-02T05:08:47.180Z,12.34
2023-05-02T05:11:16.261Z,12.29
2023-05-02T05:13:43.473Z,12.27
2023-05-02T05:16:12.290Z,12.20
2023-05-02T05:18:42.640Z,12.20
2023-05-02T05:21:12.519Z,12.30
2023-05-02T05:23:40.351Z,12.43
2023-05-02T05:26:16.013Z,12.62
2023-05-02T05:28:46.088Z,12.82
2023-05-02T05:31:16.816Z,12.78
2023-05-02T05:33:46.999Z,12.75
2023-05-02T05:36:17.572Z,12.89
2023-05-02T05:38:45.221Z,13.05
2023-05-02T05:41:12.849Z,13.18
2023-05-02T05:43:44.410Z,13.38
2023-05-02T05:46:11.444Z,13.69
2023-05-02T05:48:38.610Z,13.85
2023-05-02T05:51:06.118Z,13.81
2023-05-02T05:53:33.552Z,13.82
2023-05-02T05:56:12.406Z,13.84
2023-05-02T05:58:44.476Z,13.80
2023-05-02T06:01:13.366Z,13.73
2023-05-02T06:03:41.197Z,13.68
2023-05-02T06:06:08.611Z,13.56
2023-05-02T06:08:35.722Z,13.44
2023-05-02T06:11:04.014Z,13.33
2023-05-02T06:13:31.267Z,13.29
2023-05-02T06:16:01.899Z,13.21
2023-05-02T06:18:29.971Z,13.13
2023-05-02T06:20:56.983Z,13.10
2023-05-02T06:23:23.983Z,13.18
2023-05-02T06:25:51.538Z,13.25
2023-05-02T06:28:18.678Z,13.25
2023-05-02T06:30:45.693Z,13.27
2023-05-02T06:33:13.148Z,13.32
2023-05-02T06:35:40.151Z,13.37
2023-05-02T06:38:07.136Z,13.34
2023-05-02T06:40:36.721Z,13.32
2023-05-02T06:43:03.755Z,13.34
2023-05-02T06:45:30.840Z,13.43
2023-05-02T06:47:57.924Z,13.57
2023-05-02T06:50:25.005Z,13.56
2023-05-02T06:52:52.055Z,13.54
2023-05-02T06:55:19.170Z,13.52
2023-05-02T06:57:46.602Z,13.50
2023-05-02T07:00:14.873Z,13.47
2023-05-02T07:02:41.931Z,13.54
2023-05-02T07:05:09.277Z,13.66
2023-05-02T07:07:36.330Z,13.67
2023-05-02T07:10:04.453Z,13.71
2023-05-02T07:12:31.638Z,13.87
2023-05-02T07:14:58.700Z,13.90
2023-05-02T07:17:25.839Z,13.86
2023-05-02T07:19:53.273Z,13.92
2023-05-02T07:22:21.284Z,14.02
2023-05-02T07:24:48.338Z,14.12
2023-05-02T07:27:15.382Z,14.21
2023-05-02T07:29:43.068Z,14.30
2023-05-02T07:32:10.263Z,14.38
2023-05-02T07:34:37.385Z,14.43
2023-05-02T07:37:04.374Z,14.44
2023-05-02T07:39:33.095Z,14.46
2023-05-02T07:42:00.212Z,14.42
2023-05-02T07:44:27.257Z,14.43
2023-05-02T07:46:54.314Z,14.50
2023-05-02T07:49:21.440Z,14.52
2023-05-02T07:51:48.443Z,14.55
2023-05-02T07:54:19.385Z,14.69
2023-05-02T07:56:47.301Z,14.78
2023-05-02T07:59:14.292Z,14.80
2023-05-02T08:01:44.806Z,14.94
2023-05-02T08:04:12.360Z,15.01
2023-05-02T08:06:39.665Z,14.90
2023-05-02T08:09:06.741Z,14.80
2023-05-02T08:11:33.827Z,14.83
2023-05-02T08:14:01.068Z,14.78
2023-05-02T08:16:28.090Z,14.78
2023-05-02T08:18:55.184Z,14.90
2023-05-02T08:21:22.401Z,15.05
2023-05-02T08:23:49.514Z,15.13
2023-05-02T08:26:19.258Z,15.30
2023-05-02T08:28:46.242Z,15.50
2023-05-02T08:31:13.338Z,15.64
2023-05-02T08:33:40.514Z,15.58
2023-05-02T08:36:12.263Z,15.38
2023-05-02T08:38:39.292Z,15.19
2023-05-02T08:41:20.089Z,15.08
2023-05-02T08:43:47.257Z,15.16
2023-05-02T08:46:16.108Z,15.25
2023-05-02T08:48:44.958Z,15.29
2023-05-02T08:51:14.289Z,15.34
2023-05-02T08:53:41.510Z,15.37
2023-05-02T08:56:09.137Z,15.47
2023-05-02T08:58:38.359Z,15.67
2023-05-02T09:01:19.802Z,15.71
2023-05-02T09:03:47.870Z,15.47
2023-05-02T09:06:19.728Z,15.34
2023-05-02T09:08:52.578Z,15.32
2023-05-02T09:11:19.654Z,15.32
2023-05-02T09:13:52.049Z,15.41
2023-05-02T09:16:23.051Z,15.68
2023-05-02T09:18:57.624Z,15.92
2023-05-02T09:21:26.589Z,16.09
2023-05-02T09:23:55.271Z,16.19
2023-05-02T09:26:35.353Z,16.16
2023-05-02T09:29:04.015Z,16.30
2023-05-02T09:31:54.984Z,16.39
2023-05-02T09:34:23.759Z,16.27
2023-05-02T09:36:54.721Z,16.16
2023-05-02T09:39:25.823Z,16.06
2023-05-02T09:41:53.585Z,16.04
2023-05-02T09:44:25.421Z,16.05
2023-05-02T09:46:53.750Z,16.12
2023-05-02T09:49:48.960Z,16.16
2023-05-02T09:52:17.785Z,16.26
2023-05-02T09:54:47.041Z,16.31
2023-05-02T09:57:14.315Z,16.41
2023-05-02T09:59:41.717Z,16.45
2023-05-02T10:02:11.761Z,16.39
2023-05-02T10:04:39.797Z,16.49
2023-05-02T10:07:07.699Z,16.57
2023-05-02T10:09:36.011Z,16.54
2023-05-02T10:12:05.336Z,16.55
2023-05-02T10:14:32.402Z,16.60
2023-05-02T10:17:09.628Z,16.63
2023-05-02T10:19:49.182Z,16.62
2023-05-02T10:22:16.274Z,16.66
2023-05-02T10:24:43.324Z,16.64
2023-05-02T10:27:10.373Z,16.51
2023-05-02T10:29:37.373Z,16.39
2023-05-02T10:32:04.872Z,16.36
2023-05-02T10:34:32.901Z,16.44
2023-05-02T10:37:01.650Z,16.59
2023-05-02T10:39:29.306Z,16.72
2023-05-02T10:41:57.991Z,16.77
2023-05-02T10:44:34.386Z,16.89
2023-05-02T10:47:01.610Z,16.95
2023-05-02T10:49:30.106Z,17.05
2023-05-02T10:51:57.116Z,17.12
2023-05-02T10:54:24.977Z,17.00
2023-05-02T10:57:04.550Z,17.02
2023-05-02T10:59:44.022Z,17.16
2023-05-02T11:02:23.804Z,17.24
2023-05-02T11:05:04.708Z,17.31
2023-05-02T11:07:36.294Z,17.28
2023-05-02T11:11:38.217Z,17.25
2023-05-02T11:14:05.299Z,17.27
2023-05-02T11:17:09.843Z,17.28
2023-05-02T11:19:46.206Z,17.41
2023-05-02T11:22:19.387Z,17.54
2023-05-02T11:24:50.338Z,17.56
2023-05-02T11:27:30.042Z,17.44
2023-05-02T11:30:07.206Z,17.35
2023-05-02T11:32:49.866Z,17.37
2023-05-02T11:35:24.144Z,17.40
2023-05-02T11:37:55.216Z,17.48
2023-05-02T11:40:22.536Z,17.47
2023-05-02T11:42:49.609Z,17.51
2023-05-02T11:45:16.944Z,17.43
2023-05-02T11:47:44.006Z,17.32
2023-05-02T11:50:11.284Z,17.26
2023-05-02T11:52:43.186Z,17.19
2023-05-02T11:55:14.236Z,17.14
2023-05-02T11:57:41.371Z,17.15
2023-05-02T12:00:11.178Z,17.22
2023-05-02T12:02:42.696Z,17.30
2023-05-02T12:05:12.593Z,17.28
2023-05-02T12:07:41.967Z,17.37
2023-05-02T12:10:09.469Z,17.50
2023-05-02T12:12:36.981Z,17.40
2023-05-02T12:15:05.162Z,17.49
2023-05-02T12:17:33.461Z,17.75
2023-05-02T12:20:00.909Z,17.85
2023-05-02T12:22:28.167Z,17.83
2023-05-02T12:24:55.340Z,18.08
2023-05-02T12:27:22.401Z,18.19
2023-05-02T12:29:49.750Z,18.11
2023-05-02T12:32:30.211Z,18.00
2023-05-02T12:34:58.278Z,17.78
2023-05-02T12:37:26.203Z,17.89
2023-05-02T12:39:57.088Z,17.89
2023-05-02T12:42:25.545Z,17.73
2023-05-02T12:44:53.420Z,17.68
2023-05-02T12:47:21.685Z,17.65
2023-05-02T12:49:53.059Z,17.71
2023-05-02T12:52:20.678Z,17.70
2023-05-02T12:54:47.748Z,17.61
2023-05-02T12:57:25.249Z,17.54
2023-05-02T12:59:55.420Z,17.55
2023-05-02T13:02:22.958Z,17.64
2023-05-02T13:04:50.422Z,17.71
2023-05-02T13:07:17.484Z,17.77
2023-05-02T13:09:44.509Z,17.84
2023-05-02T13:12:11.565Z,17.79
2023-05-02T13:14:39.411Z,17.86
2023-05-02T13:17:08.933Z,17.85
2023-05-02T13:19:37.334Z,17.76
2023-05-02T13:22:05.879Z,17.71
2023-05-02T13:24:32.983Z,17.67
2023-05-02T13:27:00.050Z,17.67
2023-05-02T13:29:27.106Z,17.69
2023-05-02T13:31:54.092Z,17.65
2023-05-02T13:34:21.096Z,17.56
2023-05-02T13:36:48.172Z,17.43
2023-05-02T13:39:15.326Z,17.36
2023-05-02T13:41:42.463Z,17.41
2023-05-02T13:44:09.663Z,17.46
2023-05-02T13:46:38.087Z,17.46
2023-05-02T13:49:05.466Z,17.54
2023-05-02T13:51:32.697Z,17.71
2023-05-02T13:53:59.914Z,17.86
2023-05-02T13:56:27.264Z,17.85
2023-05-02T13:58:54.266Z,17.74
2023-05-02T14:01:21.341Z,17.67
2023-05-02T14:03:48.635Z,17.63
2023-05-02T14:06:16.727Z,17.63
2023-05-02T14:08:44.044Z,17.61
2023-05-02T14:11:11.634Z,17.63
2023-05-02T14:13:38.622Z,17.67
2023-05-02T14:16:06.073Z,17.62
2023-05-02T14:18:33.128Z,17.58
2023-05-02T14:21:00.381Z,17.74
2023-05-02T14:23:30.190Z,17.87
2023-05-02T14:25:57.551Z,17.77
2023-05-02T14:28:24.552Z,17.68
2023-05-02T14:30:51.642Z,17.65
2023-05-02T14:33:18.697Z,17.55
2023-05-02T14:35:46.148Z,17.42
2023-05-02T14:38:13.145Z,17.24
2023-05-02T14:40:40.654Z,17.16
2023-05-02T14:43:08.565Z,17.08
2023-05-02T14:45:35.697Z,17.01
2023-05-02T14:48:02.856Z,17.00
2023-05-02T14:50:29.931Z,17.05
2023-05-02T14:52:57.027Z,17.04
2023-05-02T14:55:24.319Z,17.05
2023-05-02T14:57:51.320Z,16.96
2023-05-02T15:00:18.547Z,16.89
2023-05-02T15:02:45.554Z,16.85
2023-05-02T15:05:13.065Z,16.80
2023-05-02T15:07:40.351Z,16.69
2023-05-02T15:10:08.221Z,16.60
2023-05-02T15:12:35.361Z,16.53
2023-05-02T15:15:02.429Z,16.46
2023-05-02T15:17:29.421Z,16.45
2023-05-02T15:19:58.378Z,16.45
2023-05-02T15:22:26.360Z,16.47
2023-05-02T15:24:53.334Z,16.46
2023-05-02T15:27:20.466Z,16.52
2023-05-02T15:29:47.483Z,16.55
2023-05-02T15:32:14.661Z,16.52
2023-05-02T15:34:41.806Z,16.45
2023-05-02T15:37:08.853Z,16.38
2023-05-02T15:39:35.972Z,16.29
2023-05-02T15:42:05.132Z,16.24
2023-05-02T15:44:37.476Z,16.16
2023-05-02T15:47:04.808Z,16.05
2023-05-02T15:49:33.475Z,15.92
2023-05-02T15:52:01.588Z,15.83
2023-05-02T15:54:28.773Z,15.75
2023-05-02T15:56:56.033Z,15.69
2023-05-02T15:59:22.983Z,15.63
2023-05-02T16:01:50.036Z,15.56
2023-05-02T16:04:17.136Z,15.48
2023-05-02T16:06:44.559Z,15.40
2023-05-02T16:09:13.078Z,15.30
2023-05-02T16:11:40.141Z,15.22
2023-05-02T16:14:07.248Z,15.15
2023-05-02T16:16:34.653Z,15.09
2023-05-02T16:19:01.711Z,15.01
2023-05-02T16:21:28.827Z,14.94
2023-05-02T16:23:55.900Z,14.87
2023-05-02T16:26:22.922Z,14.79
2023-05-02T16:28:49.958Z,14.72
2023-05-02T16:31:16.960Z,14.65
2023-05-02T16:33:44.095Z,14.57
2023-05-02T16:36:11.408Z,14.50
2023-05-02T16:38:38.432Z,14.42
2023-05-02T16:41:07.325Z,14.32
2023-05-02T16:43:34.828Z,14.21
2023-05-02T16:46:02.778Z,14.10
2023-05-02T16:48:29.855Z,14.00
2023-05-02T16:50:57.295Z,13.88
2023-05-02T16:53:24.959Z,13.75
2023-05-02T16:55:52.127Z,13.64
2023-05-02T16:58:19.509Z,13.51
2023-05-02T17:00:46.888Z,13.40
2023-05-02T17:03:13.995Z,13.28
2023-05-02T17:05:41.611Z,13.17
2023-05-02T17:08:09.837Z,13.07
2023-05-02T17:10:38.026Z,12.96
2023-05-02T17:13:05.076Z,12.84
2023-05-02T17:15:38.681Z,12.71
2023-05-02T17:18:05.932Z,12.59
2023-05-02T17:20:34.502Z,12.46
2023-05-02T17:23:02.472Z,12.34
2023-05-02T17:25:30.591Z,12.22
2023-05-02T17:27:57.598Z,12.10
2023-05-02T17:30:25.440Z,11.98
2023-05-02T17:32:52.568Z,11.84
2023-05-02T17:35:19.640Z,11.72
2023-05-02T17:37:46.690Z,11.60
2023-05-02T17:40:13.686Z,11.47
2023-05-02T17:42:44.075Z,11.36
2023-05-02T17:45:11.273Z,11.22
2023-05-02T17:47:38.390Z,11.11
2023-05-02T17:50:05.990Z,11.01
2023-05-02T17:52:34.865Z,10.87
2023-05-02T17:55:02.226Z,10.76
2023-05-02T17:57:29.302Z,10.65
2023-05-02T18:00:00.105Z,10.57
2023-05-02T18:02:29.005Z,10.49
2023-05-02T18:04:56.120Z,10.40
2023-05-02T18:07:29.149Z,10.29
2023-05-02T18:10:02.456Z,10.14
2023-05-02T18:12:29.792Z,10.00
2023-05-02T18:14:57.201Z,9.89
2023-05-02T18:17:24.593Z,9.75
2023-05-02T18:19:51.637Z,9.61
2023-05-02T18:22:21.532Z,9.47
2023-05-02T18:24:49.634Z,9.40
2023-05-02T18:27:17.931Z,9.33
2023-05-02T18:29:44.935Z,9.27
2023-05-02T18:32:11.974Z,9.23
2023-05-02T18:34:39.258Z,9.17
2023-05-02T18:37:07.200Z,9.07
2023-05-02T18:39:34.459Z,8.91
2023-05-02T18:42:03.372Z,8.83
2023-05-02T18:44:31.348Z,8.75
2023-05-02T18:46:58.348Z,8.64
2023-05-02T18:49:26.484Z,8.51
2023-05-02T18:51:54.649Z,8.44
2023-05-02T18:54:23.644Z,8.40
2023-05-02T18:56:50.776Z,8.35
2023-05-02T18:59:19.049Z,8.33
2023-05-02T19:01:48.372Z,8.30
2023-05-02T19:04:15.548Z,8.27
2023-05-02T19:06:42.715Z,8.26
2023-05-02T19:09:09.930Z,8.24
2023-05-02T19:11:37.050Z,8.22
2023-05-02T19:14:04.099Z,8.16
2023-05-02T19:16:31.734Z,8.12
2023-05-02T19:18:58.917Z,8.12
2023-05-02T19:21:26.391Z,8.11
2023-05-02T19:23:53.597Z,8.09
2023-05-02T19:26:20.915Z,8.05
2023-05-02T19:28:47.926Z,7.99
2023-05-02T19:31:19.651Z,7.92
2023-05-02T19:33:51.193Z,7.83
2023-05-02T19:36:19.055Z,7.76
2023-05-02T19:38:54.028Z,7.69
2023-05-02T19:41:22.296Z,7.66
2023-05-02T19:43:49.557Z,7.59
2023-05-02T19:46:17.083Z,7.53
2023-05-02T19:48:44.884Z,7.48
2023-05-02T19:51:11.959Z,7.42
2023-05-02T19:53:39.184Z,7.36
2023-05-02T19:56:09.058Z,7.33
2023-05-02T19:58:37.361Z,7.30
2023-05-02T20:01:04.596Z,7.24
2023-05-02T20:03:32.197Z,7.17
2023-05-02T20:05:59.451Z,7.09
2023-05-02T20:08:28.205Z,7.01
2023-05-02T20:10:56.089Z,6.97
2023-05-02T20:13:23.297Z,6.91
2023-05-02T20:15:51.037Z,6.78
2023-05-02T20:18:18.079Z,6.66
2023-05-02T20:20:46.025Z,6.61
2023-05-02T20:23:13.684Z,6.52
2023-05-02T20:25:42.666Z,6.46
2023-05-02T20:28:10.288Z,6.45
2023-05-02T20:30:39.356Z,6.43
2023-05-02T20:33:14.771Z,6.39
2023-05-02T20:35:44.035Z,6.33
2023-05-02T20:38:11.492Z,6.29
2023-05-02T20:40:40.285Z,6.20
2023-05-02T20:43:07.993Z,6.06
2023-05-02T20:45:35.058Z,5.99
2023-05-02T20:48:02.181Z,5.94
2023-05-02T20:50:29.280Z,5.89
2023-05-02T20:52:56.806Z,5.87
2023-05-02T20:55:24.547Z,5.84
2023-05-02T20:57:53.710Z,5.80
2023-05-02T21:00:22.950Z,5.77
2023-05-02T21:02:50.046Z,5.75
2023-05-02T21:05:17.166Z,5.74
2023-05-02T21:07:45.103Z,5.73
2023-05-02T21:10:12.252Z,5.69
2023-05-02T21:12:39.694Z,5.64
2023-05-02T21:15:07.872Z,5.59
2023-05-02T21:17:35.013Z,5.54
2023-05-02T21:20:02.680Z,5.50
2023-05-02T21:22:30.000Z,5.43
2023-05-02T21:24:56.986Z,5.42
2023-05-02T21:27:24.138Z,5.43
2023-05-02T21:29:51.517Z,5.42
2023-05-02T21:32:18.533Z,5.38
2023-05-02T21:34:45.975Z,5.32
2023-05-02T21:37:13.062Z,5.26
2023-05-02T21:39:40.095Z,5.21
2023-05-02T21:42:07.191Z,5.19
2023-05-02T21:44:34.219Z,5.17
2023-05-02T21:47:01.225Z,5.15
2023-05-02T21:49:30.204Z,5.06
2023-05-02T21:51:58.628Z,4.99
2023-05-02T21:54:25.700Z,4.93
2023-05-02T21:56:55.803Z,4.90
2023-05-02T21:59:22.825Z,4.89
2023-05-02T22:01:50.048Z,4.91
2023-05-02T22:04:18.212Z,4.88
2023-05-02T22:06:51.845Z,4.85
2023-05-02T22:09:19.765Z,4.80
2023-05-02T22:11:47.480Z,4.72
2023-05-02T22:14:14.504Z,4.63
2023-05-02T22:16:41.598Z,4.59
2023-05-02T22:19:11.011Z,4.59
2023-05-02T22:21:38.011Z,4.59
2023-05-02T22:24:05.417Z,4.58
2023-05-02T22:26:32.395Z,4.52
2023-05-02T22:28:59.371Z,4.46
2023-05-02T22:31:27.417Z,4.42
2023-05-02T22:33:54.533Z,4.34
2023-05-02T22:36:21.612Z,4.23
2023-05-02T22:38:48.727Z,4.14
2023-05-02T22:41:15.770Z,4.06
2023-05-02T22:43:42.822Z,4.02
2023-05-02T22:46:09.889Z,3.99
2023-05-02T22:48:36.990Z,3.99
2023-05-02T22:51:04.154Z,3.99
2023-05-02T22:53:31.584Z,4.00
2023-05-02T22:55:58.622Z,4.01
2023-05-02T22:58:25.621Z,4.02
2023-05-02T23:00:52.661Z,4.02
2023-05-02T23:03:19.759Z,4.03
2023-05-02T23:05:47.092Z,4.03
2023-05-02T23:08:14.183Z,4.01
2023-05-02T23:10:41.250Z,3.98
2023-05-02T23:13:08.299Z,3.94
2023-05-02T23:15:35.349Z,3.88
2023-05-02T23:18:02.506Z,3.84
2023-05-02T23:20:29.565Z,3.78
2023-05-02T23:22:56.769Z,3.73
2023-05-02T23:25:23.753Z,3.68
2023-05-02T23:29:09.601Z,3.61
2023-05-02T23:31:37.023Z,3.54
2023-05-02T23:34:04.124Z,3.53
2023-05-02T23:36:34.838Z,3.51
2023-05-02T23:39:02.966Z,3.46
2023-05-02T23:41:30.198Z,3.43
2023-05-02T23:43:57.182Z,3.41
2023-05-02T23:46:24.843Z,3.38
2023-05-02T23:48:52.002Z,3.36
2023-05-02T23:51:19.034Z,3.34
2023-05-02T23:53:46.068Z,3.34
2023-05-02T23:56:13.120Z,3.35
2023-05-02T23:58:40.158Z,3.35
